createdAt,value
2023-03-19T00:01:51.881Z,8.22
2023-03-19T00:04:37.281Z,8.15
2023-03-19T00:07:22.735Z,8.15
2023-03-19T00:10:08.667Z,8.10
2023-03-19T00:12:54.032Z,7.97
2023-03-19T00:15:39.453Z,7.98
2023-03-19T00:18:24.729Z,7.97
2023-03-19T00:21:09.983Z,7.95
2023-03-19T00:23:55.477Z,7.99
2023-03-19T00:26:40.840Z,8.02
2023-03-19T00:29:26.065Z,8.07
2023-03-19T00:32:11.681Z,8.08
2023-03-19T00:34:56.903Z,8.00
2023-03-19T00:37:42.470Z,7.90
2023-03-19T00:40:27.726Z,7.97
2023-03-19T00:43:13.034Z,7.88
2023-03-19T00:45:58.580Z,7.83
2023-03-19T00:48:43.784Z,7.84
2023-03-19T00:51:29.263Z,7.84
2023-03-19T00:54:14.534Z,7.84
2023-03-19T00:57:00.162Z,7.76
2023-03-19T00:59:46.016Z,7.76
2023-03-19T01:02:31.822Z,7.81
2023-03-19T01:05:17.048Z,7.69
2023-03-19T01:08:02.578Z,7.84
2023-03-19T01:10:49.068Z,7.73
2023-03-19T01:13:34.320Z,7.90
2023-03-19T01:16:19.532Z,7.91
2023-03-19T01:19:04.822Z,7.93
2023-03-19T01:21:50.578Z,7.94
2023-03-19T01:24:39.287Z,7.93
2023-03-19T01:27:24.784Z,7.97
2023-03-19T01:30:11.288Z,7.89
2023-03-19T01:33:15.736Z,7.66
2023-03-19T01:36:36.416Z,7.50
2023-03-19T01:39:24.546Z,7.51
2023-03-19T01:42:10.166Z,7.44
2023-03-19T01:45:04.057Z,7.34
2023-03-19T01:48:24.841Z,7.15
2023-03-19T01:51:25.156Z,7.51
2023-03-19T01:54:35.888Z,7.60
2023-03-19T01:57:47.383Z,7.65
2023-03-19T02:00:50.584Z,7.67
2023-03-19T02:03:38.561Z,7.67
2023-03-19T02:06:50.551Z,7.63
2023-03-19T02:09:37.526Z,7.58
2023-03-19T02:12:22.698Z,7.55
2023-03-19T02:15:08.679Z,7.52
2023-03-19T02:17:54.105Z,7.49
2023-03-19T02:20:50.896Z,7.50
2023-03-19T02:23:35.970Z,7.49
2023-03-19T02:26:30.629Z,7.38
2023-03-19T02:29:20.775Z,7.26
2023-03-19T02:32:06.673Z,7.19
2023-03-19T02:34:53.951Z,7.15
2023-03-19T02:37:39.418Z,7.09
2023-03-19T02:40:29.118Z,7.08
2023-03-19T02:43:14.501Z,7.08
2023-03-19T02:46:01.476Z,7.07
2023-03-19T02:48:47.310Z,7.08
2023-03-19T02:51:32.553Z,7.06
2023-03-19T02:54:17.797Z,7.03
2023-03-19T02:57:03.023Z,6.96
2023-03-19T02:59:48.643Z,6.79
2023-03-19T03:02:34.058Z,6.57
2023-03-19T03:05:19.179Z,6.55
2023-03-19T03:08:05.582Z,6.63
2023-03-19T03:10:50.771Z,6.63
2023-03-19T03:13:36.122Z,6.62
2023-03-19T03:16:21.619Z,6.32
2023-03-19T03:19:07.340Z,6.19
2023-03-19T03:21:53.493Z,6.06
2023-03-19T03:24:39.909Z,6.10
2023-03-19T03:27:25.112Z,6.13
2023-03-19T03:30:12.217Z,6.23
2023-03-19T03:32:57.579Z,6.27
2023-03-19T03:35:43.388Z,5.86
2023-03-19T03:38:29.079Z,6.27
2023-03-19T03:41:15.299Z,6.16
2023-03-19T03:44:00.829Z,6.28
2023-03-19T03:46:46.205Z,6.10
2023-03-19T03:49:31.634Z,6.05
2023-03-19T03:52:17.048Z,6.01
2023-03-19T03:55:02.440Z,6.12
2023-03-19T03:57:48.193Z,6.16
2023-03-19T04:00:34.379Z,6.18
2023-03-19T04:03:20.080Z,6.13
2023-03-19T04:06:05.763Z,6.23
2023-03-19T04:08:51.126Z,6.24
2023-03-19T04:11:36.934Z,6.22
2023-03-19T04:14:22.440Z,6.24
2023-03-19T04:17:08.236Z,6.25
2023-03-19T04:19:53.641Z,6.23
2023-03-19T04:22:39.327Z,6.15
2023-03-19T04:25:25.028Z,6.19
2023-03-19T04:28:10.454Z,6.05
2023-03-19T04:31:04.084Z,5.93
2023-03-19T04:33:51.658Z,5.84
2023-03-19T04:36:38.415Z,5.99
2023-03-19T04:39:23.981Z,5.96
2023-03-19T04:42:11.150Z,5.96
2023-03-19T04:45:04.410Z,5.95
2023-03-19T04:47:50.125Z,5.95
2023-03-19T04:50:36.047Z,5.62
2023-03-19T04:53:21.596Z,5.65
2023-03-19T04:56:07.739Z,5.73
2023-03-19T04:58:54.054Z,5.81
2023-03-19T05:01:39.244Z,5.42
2023-03-19T05:04:26.851Z,5.82
2023-03-19T05:07:17.969Z,5.85
2023-03-19T05:10:03.988Z,5.71
2023-03-19T05:12:49.716Z,5.45
2023-03-19T05:15:35.638Z,5.84
2023-03-19T05:18:25.239Z,5.82
2023-03-19T05:21:13.214Z,5.87
2023-03-19T05:23:59.103Z,5.85
2023-03-19T05:26:44.937Z,5.86
2023-03-19T05:29:48.991Z,5.82
2023-03-19T05:32:59.072Z,5.39
2023-03-19T05:36:03.964Z,5.61
2023-03-19T05:39:04.609Z,5.40
2023-03-19T05:41:53.751Z,5.55
2023-03-19T05:44:44.336Z,5.67
2023-03-19T05:47:55.902Z,5.72
2023-03-19T05:50:41.567Z,5.28
2023-03-19T05:53:38.631Z,5.25
2023-03-19T05:56:46.690Z,5.51
2023-03-19T05:59:52.514Z,5.91
2023-03-19T06:02:57.916Z,5.94
2023-03-19T06:06:01.739Z,5.40
2023-03-19T06:08:54.714Z,5.77
2023-03-19T06:11:44.161Z,5.73
2023-03-19T06:14:48.075Z,5.73
2023-03-19T06:17:53.800Z,5.77
2023-03-19T06:20:39.285Z,5.72
2023-03-19T06:23:24.650Z,5.77
2023-03-19T06:26:09.719Z,5.53
2023-03-19T06:29:06.514Z,5.65
2023-03-19T06:31:53.020Z,5.56
2023-03-19T06:34:55.954Z,5.47
2023-03-19T06:37:41.602Z,5.53
2023-03-19T06:40:26.926Z,5.66
2023-03-19T06:43:12.110Z,5.60
2023-03-19T06:45:57.431Z,5.67
2023-03-19T06:48:42.766Z,5.63
2023-03-19T06:51:28.013Z,5.86
2023-03-19T06:54:14.502Z,5.95
2023-03-19T06:57:00.052Z,5.97
2023-03-19T06:59:45.231Z,6.08
2023-03-19T07:02:30.421Z,6.41
2023-03-19T07:05:15.706Z,6.53
2023-03-19T07:08:01.266Z,6.58
2023-03-19T07:10:46.988Z,6.64
2023-03-19T07:13:34.234Z,6.34
2023-03-19T07:16:19.910Z,7.06
2023-03-19T07:19:05.051Z,7.14
2023-03-19T07:21:50.252Z,6.79
2023-03-19T07:24:35.777Z,7.20
2023-03-19T07:27:21.325Z,7.26
2023-03-19T07:30:07.453Z,7.45
2023-03-19T07:32:52.755Z,7.61
2023-03-19T07:35:37.974Z,7.76
2023-03-19T07:38:23.197Z,7.87
2023-03-19T07:41:08.458Z,7.96
2023-03-19T07:43:53.765Z,8.04
2023-03-19T07:46:39.176Z,8.06
2023-03-19T07:49:24.542Z,8.08
2023-03-19T07:52:10.245Z,8.19
2023-03-19T07:54:55.608Z,7.89
2023-03-19T07:57:40.758Z,8.41
2023-03-19T08:00:26.263Z,8.48
2023-03-19T08:03:13.971Z,8.53
2023-03-19T08:05:59.168Z,8.53
2023-03-19T08:08:45.027Z,8.27
2023-03-19T08:11:30.577Z,8.71
2023-03-19T08:14:16.207Z,8.63
2023-03-19T08:17:01.315Z,8.63
2023-03-19T08:19:47.284Z,8.87
2023-03-19T08:22:32.895Z,9.03
2023-03-19T08:25:18.365Z,9.04
2023-03-19T08:28:03.530Z,8.59
2023-03-19T08:30:48.807Z,8.81
2023-03-19T08:33:33.982Z,8.97
2023-03-19T08:36:19.438Z,9.19
2023-03-19T08:39:04.526Z,9.43
2023-03-19T08:41:49.882Z,9.53
2023-03-19T08:44:35.247Z,9.75
2023-03-19T08:47:20.971Z,9.20
2023-03-19T08:50:07.326Z,9.64
2023-03-19T08:52:52.840Z,10.07
2023-03-19T08:55:38.259Z,10.40
2023-03-19T08:58:24.657Z,10.51
2023-03-19T09:01:13.011Z,10.60
2023-03-19T09:03:58.517Z,10.37
2023-03-19T09:06:44.332Z,10.34
2023-03-19T09:09:29.778Z,10.43
2023-03-19T09:12:16.673Z,10.45
2023-03-19T09:15:02.199Z,10.46
2023-03-19T09:17:47.580Z,10.71
2023-03-19T09:20:32.769Z,10.72
2023-03-19T09:23:18.397Z,10.96
2023-03-19T09:26:04.139Z,11.04
2023-03-19T09:28:49.456Z,11.14
2023-03-19T09:31:35.125Z,11.22
2023-03-19T09:34:20.404Z,11.40
2023-03-19T09:37:05.672Z,11.50
2023-03-19T09:39:51.039Z,11.63
2023-03-19T09:42:51.980Z,11.53
2023-03-19T09:45:37.887Z,11.54
2023-03-19T09:48:39.381Z,11.33
2023-03-19T09:51:43.546Z,11.50
2023-03-19T09:54:50.744Z,11.20
2023-03-19T09:57:37.217Z,11.28
2023-03-19T10:00:27.226Z,11.01
2023-03-19T10:03:21.489Z,11.47
2023-03-19T10:06:07.140Z,11.69
2023-03-19T10:09:15.904Z,11.83
2023-03-19T10:12:29.809Z,12.16
2023-03-19T10:15:18.783Z,12.19
2023-03-19T10:18:15.947Z,12.18
2023-03-19T10:21:09.719Z,12.16
2023-03-19T10:23:57.884Z,12.30
2023-03-19T10:26:45.444Z,12.50
2023-03-19T10:29:31.627Z,12.49
2023-03-19T10:32:41.701Z,12.62
2023-03-19T10:35:41.272Z,12.61
2023-03-19T10:38:27.414Z,12.69
2023-03-19T10:41:45.359Z,12.81
2023-03-19T10:44:48.533Z,12.83
2023-03-19T10:47:39.026Z,12.59
2023-03-19T10:50:32.550Z,12.40
2023-03-19T10:53:27.392Z,12.69
2023-03-19T10:56:24.844Z,12.62
2023-03-19T10:59:31.245Z,12.51
2023-03-19T11:02:23.475Z,12.66
2023-03-19T11:05:24.176Z,12.63
2023-03-19T11:08:35.027Z,12.71
2023-03-19T11:11:35.631Z,12.66
2023-03-19T11:14:34.620Z,12.89
2023-03-19T11:17:26.476Z,12.62
2023-03-19T11:20:24.147Z,12.22
2023-03-19T11:23:16.073Z,12.31
2023-03-19T11:26:01.543Z,12.60
2023-03-19T11:28:51.546Z,12.92
2023-03-19T11:31:47.599Z,13.05
2023-03-19T11:34:53.726Z,13.32
2023-03-19T11:37:54.539Z,13.13
2023-03-19T11:40:45.032Z,13.28
2023-03-19T11:43:32.794Z,13.29
2023-03-19T11:46:32.499Z,13.31
2023-03-19T11:49:30.527Z,13.53
2023-03-19T11:52:36.949Z,13.42
2023-03-19T11:55:33.590Z,13.45
2023-03-19T11:58:49.427Z,13.44
2023-03-19T12:01:51.243Z,13.11
2023-03-19T12:05:05.523Z,13.11
2023-03-19T12:08:11.037Z,12.47
2023-03-19T12:11:18.457Z,13.51
2023-03-19T12:14:27.009Z,13.58
2023-03-19T12:17:21.010Z,13.55
2023-03-19T12:20:24.682Z,13.94
2023-03-19T12:23:30.849Z,14.24
2023-03-19T12:26:26.008Z,14.43
2023-03-19T12:29:30.861Z,14.51
2023-03-19T12:32:25.506Z,14.63
2023-03-19T12:35:16.961Z,14.35
2023-03-19T12:38:17.260Z,14.30
2023-03-19T12:41:10.305Z,14.27
2023-03-19T12:44:03.652Z,14.08
2023-03-19T12:47:08.992Z,13.83
2023-03-19T12:50:07.334Z,14.03
2023-03-19T12:52:58.223Z,14.15
2023-03-19T12:55:52.481Z,14.39
2023-03-19T12:58:49.554Z,14.47
2023-03-19T13:01:48.745Z,14.65
2023-03-19T13:04:40.118Z,14.59
2023-03-19T13:07:46.594Z,14.83
2023-03-19T13:10:32.697Z,14.47
2023-03-19T13:13:40.307Z,14.89
2023-03-19T13:16:46.426Z,14.93
2023-03-19T13:19:45.698Z,14.65
2023-03-19T13:22:35.891Z,14.71
2023-03-19T13:25:27.305Z,14.79
2023-03-19T13:28:22.557Z,15.12
2023-03-19T13:31:19.427Z,15.18
2023-03-19T13:34:17.438Z,15.33
2023-03-19T13:37:29.368Z,15.29
2023-03-19T13:40:42.112Z,15.09
2023-03-19T13:43:30.489Z,15.34
2023-03-19T13:46:16.159Z,14.76
2023-03-19T13:49:22.941Z,14.54
2023-03-19T13:52:11.327Z,14.81
2023-03-19T13:55:25.507Z,14.98
2023-03-19T13:58:11.077Z,14.94
2023-03-19T14:00:58.659Z,14.51
2023-03-19T14:04:04.046Z,14.45
2023-03-19T14:06:53.099Z,14.32
2023-03-19T14:10:04.669Z,14.12
2023-03-19T14:12:50.112Z,12.83
2023-03-19T14:15:38.984Z,12.59
2023-03-19T14:18:25.440Z,11.49
2023-03-19T14:21:31.846Z,11.29
2023-03-19T14:24:56.854Z,11.37
2023-03-19T14:27:59.381Z,11.14
2023-03-19T14:30:47.890Z,10.98
2023-03-19T14:33:44.047Z,11.10
2023-03-19T14:36:30.680Z,10.87
2023-03-19T14:39:32.140Z,10.08
2023-03-19T14:42:27.066Z,9.73
2023-03-19T14:45:48.646Z,10.07
2023-03-19T14:49:06.633Z,9.58
2023-03-19T14:51:57.623Z,9.39
2023-03-19T14:54:51.149Z,9.50
2023-03-19T14:57:36.595Z,9.65
2023-03-19T15:00:21.843Z,9.20
2023-03-19T15:03:19.785Z,9.00
2023-03-19T15:06:07.889Z,8.83
2023-03-19T15:08:53.068Z,8.62
2023-03-19T15:11:54.680Z,8.63
2023-03-19T15:15:06.667Z,8.75
2023-03-19T15:18:03.782Z,8.61
2023-03-19T15:20:54.215Z,9.20
2023-03-19T15:23:41.667Z,9.38
2023-03-19T15:26:36.587Z,9.60
2023-03-19T15:29:37.756Z,9.95
2023-03-19T15:33:07.854Z,10.22
2023-03-19T15:35:43.019Z,10.37
2023-03-19T15:38:33.251Z,10.41
2023-03-19T15:41:20.070Z,10.38
2023-03-19T15:44:11.028Z,10.85
2023-03-19T15:46:57.872Z,11.02
2023-03-19T15:49:49.833Z,11.29
2023-03-19T15:52:40.444Z,11.43
2023-03-19T15:55:26.604Z,11.42
2023-03-19T15:58:17.442Z,11.68
2023-03-19T16:01:07.731Z,11.92
2023-03-19T16:04:03.790Z,12.24
2023-03-19T16:06:49.979Z,12.15
2023-03-19T16:09:35.222Z,12.19
2023-03-19T16:12:40.753Z,12.38
2023-03-19T16:15:45.946Z,12.40
2023-03-19T16:19:02.077Z,12.18
2023-03-19T16:21:48.911Z,12.32
2023-03-19T16:24:36.220Z,12.18
2023-03-19T16:27:38.620Z,12.19
2023-03-19T16:30:28.153Z,12.02
2023-03-19T16:33:14.869Z,11.57
2023-03-19T16:35:59.986Z,11.77
2023-03-19T16:39:10.972Z,11.73
2023-03-19T16:42:08.620Z,12.02
2023-03-19T16:44:54.094Z,11.83
2023-03-19T16:47:39.582Z,11.97
2023-03-19T16:50:31.274Z,12.14
2023-03-19T16:53:25.464Z,12.12
2023-03-19T16:56:14.424Z,12.12
2023-03-19T16:59:01.734Z,12.00
2023-03-19T17:01:47.375Z,11.86
2023-03-19T17:04:32.836Z,11.75
2023-03-19T17:07:18.047Z,11.65
2023-03-19T17:10:03.328Z,11.40
2023-03-19T17:12:52.084Z,11.38
2023-03-19T17:15:40.726Z,11.26
2023-03-19T17:18:29.328Z,11.03
2023-03-19T17:21:33.313Z,11.02
2023-03-19T17:24:25.881Z,10.60
2023-03-19T17:27:11.311Z,10.54
2023-03-19T17:29:56.684Z,10.64
2023-03-19T17:32:46.918Z,10.55
2023-03-19T17:35:32.833Z,10.39
2023-03-19T17:38:19.272Z,10.33
2023-03-19T17:41:18.183Z,10.29
2023-03-19T17:44:06.467Z,10.12
2023-03-19T17:46:57.404Z,10.14
2023-03-19T17:49:42.868Z,10.21
2023-03-19T17:52:28.898Z,10.12
2023-03-19T17:55:23.242Z,9.81
2023-03-19T17:58:18.569Z,10.07
2023-03-19T18:01:03.905Z,10.19
2023-03-19T18:03:51.055Z,10.25
2023-03-19T18:06:45.442Z,10.06
2023-03-19T18:09:30.901Z,10.38
2023-03-19T18:12:16.380Z,10.35
2023-03-19T18:15:02.051Z,10.36
2023-03-19T18:17:56.285Z,10.36
2023-03-19T18:20:41.936Z,10.28
2023-03-19T18:23:27.234Z,10.29
2023-03-19T18:26:12.792Z,10.30
2023-03-19T18:28:58.055Z,10.27
2023-03-19T18:31:47.458Z,10.05
2023-03-19T18:34:32.795Z,10.03
2023-03-19T18:37:18.458Z,9.91
2023-03-19T18:40:04.316Z,9.71
2023-03-19T18:42:49.916Z,9.81
2023-03-19T18:45:35.527Z,9.90
2023-03-19T18:48:24.628Z,9.96
2023-03-19T18:51:11.665Z,10.00
2023-03-19T18:53:57.422Z,9.83
2023-03-19T18:56:44.215Z,9.95
2023-03-19T18:59:32.760Z,9.92
2023-03-19T19:02:36.337Z,9.92
2023-03-19T19:05:23.768Z,9.93
2023-03-19T19:08:18.630Z,9.91
2023-03-19T19:11:06.830Z,9.90
2023-03-19T19:13:58.805Z,9.90
2023-03-19T19:16:44.453Z,9.89
2023-03-19T19:19:30.123Z,9.87
2023-03-19T19:22:18.130Z,9.89
2023-03-19T19:25:03.600Z,9.90
2023-03-19T19:27:54.422Z,9.82
2023-03-19T19:30:40.163Z,9.55
2023-03-19T19:33:27.974Z,9.48
2023-03-19T19:36:13.612Z,9.45
2023-03-19T19:38:58.596Z,9.32
2023-03-19T19:41:44.451Z,9.45
2023-03-19T19:44:29.894Z,9.28
2023-03-19T19:47:16.362Z,8.90
2023-03-19T19:50:01.627Z,9.41
2023-03-19T19:52:47.193Z,9.42
2023-03-19T19:55:32.756Z,9.38
2023-03-19T19:58:21.551Z,9.44
2023-03-19T20:01:15.587Z,9.45
2023-03-19T20:04:00.950Z,9.47
2023-03-19T20:06:46.449Z,9.03
2023-03-19T20:09:31.955Z,8.83
2023-03-19T20:12:24.701Z,9.37
2023-03-19T20:15:35.228Z,9.33
2023-03-19T20:18:23.869Z,9.08
2023-03-19T20:21:13.403Z,8.99
2023-03-19T20:23:58.617Z,9.29
2023-03-19T20:26:44.281Z,9.24
2023-03-19T20:29:34.483Z,9.15
2023-03-19T20:32:33.367Z,9.23
2023-03-19T20:35:26.954Z,9.16
2023-03-19T20:38:14.086Z,9.23
2023-03-19T20:40:59.628Z,9.23
2023-03-19T20:43:44.967Z,9.25
2023-03-19T20:46:30.489Z,9.16
2023-03-19T20:49:16.084Z,9.09
2023-03-19T20:52:01.539Z,9.12
2023-03-19T20:54:47.028Z,8.68
2023-03-19T20:57:32.373Z,8.93
2023-03-19T21:00:21.530Z,8.65
2023-03-19T21:03:11.116Z,8.90
2023-03-19T21:06:02.824Z,8.92
2023-03-19T21:08:50.723Z,8.78
2023-03-19T21:11:41.229Z,8.77
2023-03-19T21:14:26.692Z,8.80
2023-03-19T21:17:12.056Z,8.83
2023-03-19T21:19:57.193Z,8.83
2023-03-19T21:22:43.169Z,8.86
2023-03-19T21:25:31.370Z,8.86
2023-03-19T21:28:25.547Z,8.86
2023-03-19T21:31:16.082Z,8.78
2023-03-19T21:34:01.828Z,8.79
2023-03-19T21:36:47.335Z,8.95
2023-03-19T21:39:32.534Z,8.94
2023-03-19T21:42:20.600Z,8.91
2023-03-19T21:45:06.390Z,8.95
2023-03-19T21:47:52.106Z,8.85
2023-03-19T21:50:37.519Z,8.85
2023-03-19T21:53:23.525Z,8.91
2023-03-19T21:56:20.482Z,8.61
2023-03-19T21:59:14.016Z,8.68
2023-03-19T22:01:59.893Z,8.63
2023-03-19T22:04:45.104Z,8.57
2023-03-19T22:07:30.413Z,8.57
2023-03-19T22:10:16.272Z,8.60
2023-03-19T22:13:01.793Z,8.63
2023-03-19T22:15:49.197Z,8.60
2023-03-19T22:18:34.776Z,8.60
2023-03-19T22:21:22.735Z,8.63
2023-03-19T22:24:08.161Z,8.67
2023-03-19T22:26:57.446Z,8.71
2023-03-19T22:29:44.617Z,8.63
2023-03-19T22:32:30.224Z,8.65
2023-03-19T22:35:17.593Z,8.69
2023-03-19T22:38:03.022Z,8.73
2023-03-19T22:40:51.483Z,8.75
2023-03-19T22:43:37.962Z,8.77
2023-03-19T22:46:23.782Z,8.65
2023-03-19T22:49:15.162Z,8.78
2023-03-19T22:52:01.220Z,8.79
2023-03-19T22:54:46.624Z,8.75
2023-03-19T22:57:31.924Z,8.73
2023-03-19T23:00:22.553Z,8.70
2023-03-19T23:03:12.387Z,8.33
2023-03-19T23:06:01.313Z,8.66
2023-03-19T23:08:46.685Z,8.49
2023-03-19T23:11:32.255Z,8.58
2023-03-19T23:14:28.951Z,8.53
2023-03-19T23:17:16.521Z,8.51
2023-03-19T23:20:20.092Z,8.19
2023-03-19T23:23:05.347Z,8.48
2023-03-19T23:25:51.392Z,8.44
2023-03-19T23:28:36.563Z,8.34
2023-03-19T23:31:22.418Z,7.69
2023-03-19T23:34:10.437Z,7.92
2023-03-19T23:36:55.881Z,7.95
2023-03-19T23:39:41.258Z,7.77
2023-03-19T23:42:31.604Z,7.88
2023-03-19T23:45:30.648Z,7.82
2023-03-19T23:48:25.027Z,7.89
2023-03-19T23:51:13.386Z,7.90
2023-03-19T23:53:58.603Z,7.39
2023-03-19T23:56:44.033Z,7.92
2023-03-19T23:59:34.055Z,7.82
